sensor_id;sensor_type;location;lat;lon;timestamp;P1;durP1;ratioP1;P2;durP2;ratioP2
9823;SDS011;4951;50.778;7.196;2023-08-31T00:01:31;4.27;;;3.27;;
9823;SDS011;4951;50.778;7.196;2023-08-31T00:03:59;6.67;;;3.07;;
9823;SDS011;4951;50.778;7.196;2023-08-31T00:06:28;6.30;;;3.03;;
9823;SDS011;4951;50.778;7.196;2023-08-31T00:08:55;5.93;;;2.80;;
9823;SDS011;4951;50.778;7.196;2023-08-31T00:11:24;7.37;;;3.30;;
9823;SDS011;4951;50.778;7.196;2023-08-31T00:13:53;6.70;;;3.07;;
9823;SDS011;4951;50.778;7.196;2023-08-31T00:16:23;4.37;;;2.90;;
9823;SDS011;4951;50.778;7.196;2023-08-31T00:18:52;4.47;;;3.00;;
9823;SDS011;4951;50.778;7.196;2023-08-31T00:21:19;5.50;;;2.70;;
9823;SDS011;4951;50.778;7.196;2023-08-31T00:23:48;7.97;;;3.97;;
9823;SDS011;4951;50.778;7.196;2023-08-31T00:26:16;3.83;;;2.60;;
9823;SDS011;4951;50.778;7.196;2023-08-31T00:28:47;4.33;;;2.43;;
9823;SDS011;4951;50.778;7.196;2023-08-31T00:31:15;5.67;;;2.90;;
9823;SDS011;4951;50.778;7.196;2023-08-31T00:33:42;6.77;;;2.80;;
9823;SDS011;4951;50.778;7.196;2023-08-31T00:36:11;4.70;;;2.77;;
9823;SDS011;4951;50.778;7.196;2023-08-31T00:38:38;4.87;;;2.80;;
9823;SDS011;4951;50.778;7.196;2023-08-31T00:41:07;5.00;;;2.60;;
9823;SDS011;4951;50.778;7.196;2023-08-31T00:43:34;3.67;;;2.67;;
9823;SDS011;4951;50.778;7.196;2023-08-31T00:46:03;6.37;;;3.23;;
9823;SDS011;4951;50.778;7.196;2023-08-31T00:48:30;5.70;;;2.73;;
9823;SDS011;4951;50.778;7.196;2023-08-31T00:50:57;3.70;;;2.63;;
9823;SDS011;4951;50.778;7.196;2023-08-31T00:53:26;4.27;;;2.57;;
9823;SDS011;4951;50.778;7.196;2023-08-31T00:55:55;3.83;;;2.40;;
9823;SDS011;4951;50.778;7.196;2023-08-31T00:58:22;5.83;;;2.77;;
9823;SDS011;4951;50.778;7.196;2023-08-31T01:00:54;6.53;;;3.00;;
9823;SDS011;4951;50.778;7.196;2023-08-31T01:03:42;5.23;;;3.00;;
9823;SDS011;4951;50.778;7.196;2023-08-31T01:06:18;4.60;;;2.73;;
9823;SDS011;4951;50.778;7.196;2023-08-31T01:08:59;4.50;;;2.80;;
9823;SDS011;4951;50.778;7.196;2023-08-31T01:11:40;3.17;;;2.30;;
9823;SDS011;4951;50.778;7.196;2023-08-31T01:14:21;5.27;;;3.20;;
9823;SDS011;4951;50.778;7.196;2023-08-31T01:16:51;5.20;;;2.50;;
9823;SDS011;4951;50.778;7.196;2023-08-31T01:19:28;2.90;;;2.50;;
9823;SDS011;4951;50.778;7.196;2023-08-31T01:22:05;5.10;;;2.57;;
9823;SDS011;4951;50.778;7.196;2023-08-31T01:24:39;5.77;;;3.03;;
9823;SDS011;4951;50.778;7.196;2023-08-31T01:27:07;3.47;;;2.43;;
9823;SDS011;4951;50.778;7.196;2023-08-31T01:29:36;4.17;;;2.60;;
9823;SDS011;4951;50.778;7.196;2023-08-31T01:32:05;5.90;;;3.10;;
9823;SDS011;4951;50.778;7.196;2023-08-31T01:34:35;5.83;;;2.97;;
9823;SDS011;4951;50.778;7.196;2023-08-31T01:37:04;5.20;;;2.60;;
9823;SDS011;4951;50.778;7.196;2023-08-31T01:39:39;3.57;;;2.60;;
9823;SDS011;4951;50.778;7.196;2023-08-31T01:42:13;4.80;;;2.57;;
9823;SDS011;4951;50.778;7.196;2023-08-31T01:44:42;5.73;;;2.93;;
9823;SDS011;4951;50.778;7.196;2023-08-31T01:47:19;6.03;;;3.47;;
9823;SDS011;4951;50.778;7.196;2023-08-31T01:49:47;4.17;;;2.60;;
9823;SDS011;4951;50.778;7.196;2023-08-31T01:52:15;5.30;;;3.40;;
9823;SDS011;4951;50.778;7.196;2023-08-31T01:54:45;3.90;;;2.77;;
9823;SDS011;4951;50.778;7.196;2023-08-31T01:57:12;3.00;;;2.70;;
9823;SDS011;4951;50.778;7.196;2023-08-31T02:00:01;5.90;;;3.07;;
9823;SDS011;4951;50.778;7.196;2023-08-31T02:02:39;3.20;;;2.87;;
9823;SDS011;4951;50.778;7.196;2023-08-31T02:05:07;3.67;;;2.90;;
9823;SDS011;4951;50.778;7.196;2023-08-31T02:07:35;2.90;;;2.60;;
9823;SDS011;4951;50.778;7.196;2023-08-31T02:10:05;4.10;;;2.77;;
9823;SDS011;4951;50.778;7.196;2023-08-31T02:12:33;4.17;;;2.80;;
9823;SDS011;4951;50.778;7.196;2023-08-31T02:15:03;4.03;;;3.20;;
9823;SDS011;4951;50.778;7.196;2023-08-31T02:17:31;5.07;;;2.80;;
9823;SDS011;4951;50.778;7.196;2023-08-31T02:19:59;4.63;;;2.97;;
9823;SDS011;4951;50.778;7.196;2023-08-31T02:22:29;4.43;;;4.03;;
9823;SDS011;4951;50.778;7.196;2023-08-31T02:24:57;9.00;;;4.67;;
9823;SDS011;4951;50.778;7.196;2023-08-31T02:27:26;6.33;;;4.23;;
9823;SDS011;4951;50.778;7.196;2023-08-31T02:29:53;6.37;;;4.37;;
9823;SDS011;4951;50.778;7.196;2023-08-31T02:32:20;5.73;;;4.07;;
9823;SDS011;4951;50.778;7.196;2023-08-31T02:34:48;4.70;;;3.87;;
9823;SDS011;4951;50.778;7.196;2023-08-31T02:37:16;5.57;;;4.67;;
9823;SDS011;4951;50.778;7.196;2023-08-31T02:39:43;3.30;;;3.00;;
9823;SDS011;4951;50.778;7.196;2023-08-31T02:42:10;3.87;;;3.23;;
9823;SDS011;4951;50.778;7.196;2023-08-31T02:44:40;4.87;;;3.37;;
9823;SDS011;4951;50.778;7.196;2023-08-31T02:47:15;7.07;;;5.07;;
9823;SDS011;4951;50.778;7.196;2023-08-31T02:49:42;6.50;;;4.70;;
9823;SDS011;4951;50.778;7.196;2023-08-31T02:52:10;4.00;;;3.57;;
9823;SDS011;4951;50.778;7.196;2023-08-31T02:54:37;4.97;;;3.47;;
9823;SDS011;4951;50.778;7.196;2023-08-31T02:57:05;4.90;;;4.50;;
9823;SDS011;4951;50.778;7.196;2023-08-31T02:59:33;5.57;;;3.83;;
9823;SDS011;4951;50.778;7.196;2023-08-31T03:02:03;7.93;;;4.37;;
9823;SDS011;4951;50.778;7.196;2023-08-31T03:04:32;5.00;;;3.50;;
9823;SDS011;4951;50.778;7.196;2023-08-31T03:06:59;4.63;;;3.47;;
9823;SDS011;4951;50.778;7.196;2023-08-31T03:09:26;3.90;;;3.60;;
9823;SDS011;4951;50.778;7.196;2023-08-31T03:11:53;6.13;;;3.30;;
9823;SDS011;4951;50.778;7.196;2023-08-31T03:14:21;5.63;;;3.27;;
9823;SDS011;4951;50.778;7.196;2023-08-31T03:16:48;5.17;;;3.60;;
9823;SDS011;4951;50.778;7.196;2023-08-31T03:19:17;5.80;;;5.00;;
9823;SDS011;4951;50.778;7.196;2023-08-31T03:21:44;4.20;;;3.60;;
9823;SDS011;4951;50.778;7.196;2023-08-31T03:24:11;5.03;;;3.47;;
9823;SDS011;4951;50.778;7.196;2023-08-31T03:26:39;4.33;;;3.37;;
9823;SDS011;4951;50.778;7.196;2023-08-31T03:29:07;3.53;;;3.20;;
9823;SDS011;4951;50.778;7.196;2023-08-31T03:31:35;7.07;;;5.00;;
9823;SDS011;4951;50.778;7.196;2023-08-31T03:34:02;7.07;;;4.60;;
9823;SDS011;4951;50.778;7.196;2023-08-31T03:36:32;4.00;;;3.60;;
9823;SDS011;4951;50.778;7.196;2023-08-31T03:39:00;3.60;;;3.30;;
9823;SDS011;4951;50.778;7.196;2023-08-31T03:41:28;5.30;;;3.70;;
9823;SDS011;4951;50.778;7.196;2023-08-31T03:43:58;5.00;;;4.50;;
9823;SDS011;4951;50.778;7.196;2023-08-31T03:46:27;5.30;;;3.80;;
9823;SDS011;4951;50.778;7.196;2023-08-31T03:48:54;5.50;;;4.70;;
9823;SDS011;4951;50.778;7.196;2023-08-31T03:51:21;7.70;;;4.70;;
9823;SDS011;4951;50.778;7.196;2023-08-31T03:53:49;5.63;;;4.70;;
9823;SDS011;4951;50.778;7.196;2023-08-31T03:56:17;6.00;;;4.60;;
9823;SDS011;4951;50.778;7.196;2023-08-31T03:58:44;5.20;;;3.80;;
9823;SDS011;4951;50.778;7.196;2023-08-31T04:01:12;4.60;;;4.00;;
9823;SDS011;4951;50.778;7.196;2023-08-31T04:03:41;5.60;;;4.40;;
9823;SDS011;4951;50.778;7.196;2023-08-31T04:06:10;4.83;;;4.00;;
9823;SDS011;4951;50.778;7.196;2023-08-31T04:08:40;4.57;;;4.10;;
9823;SDS011;4951;50.778;7.196;2023-08-31T04:11:08;5.77;;;4.73;;
9823;SDS011;4951;50.778;7.196;2023-08-31T04:13:35;5.60;;;3.37;;
9823;SDS011;4951;50.778;7.196;2023-08-31T04:16:02;4.93;;;4.37;;
9823;SDS011;4951;50.778;7.196;2023-08-31T04:18:30;4.60;;;4.20;;
9823;SDS011;4951;50.778;7.196;2023-08-31T04:20:57;6.67;;;4.57;;
9823;SDS011;4951;50.778;7.196;2023-08-31T04:23:28;5.50;;;4.80;;
9823;SDS011;4951;50.778;7.196;2023-08-31T04:25:56;4.70;;;3.53;;
9823;SDS011;4951;50.778;7.196;2023-08-31T04:28:26;5.20;;;4.63;;
9823;SDS011;4951;50.778;7.196;2023-08-31T04:30:53;4.47;;;4.03;;
9823;SDS011;4951;50.778;7.196;2023-08-31T04:33:20;6.60;;;3.70;;
9823;SDS011;4951;50.778;7.196;2023-08-31T04:35:47;4.03;;;3.50;;
9823;SDS011;4951;50.778;7.196;2023-08-31T04:38:14;5.47;;;4.27;;
9823;SDS011;4951;50.778;7.196;2023-08-31T04:40:42;4.20;;;3.37;;
9823;SDS011;4951;50.778;7.196;2023-08-31T04:43:11;5.87;;;3.43;;
9823;SDS011;4951;50.778;7.196;2023-08-31T04:45:42;5.23;;;3.23;;
9823;SDS011;4951;50.778;7.196;2023-08-31T04:48:10;6.17;;;3.37;;
9823;SDS011;4951;50.778;7.196;2023-08-31T04:50:39;6.20;;;3.87;;
9823;SDS011;4951;50.778;7.196;2023-08-31T04:53:07;3.10;;;2.80;;
9823;SDS011;4951;50.778;7.196;2023-08-31T04:55:35;5.60;;;3.20;;
9823;SDS011;4951;50.778;7.196;2023-08-31T04:58:04;4.87;;;3.40;;
9823;SDS011;4951;50.778;7.196;2023-08-31T05:00:35;4.57;;;2.97;;
9823;SDS011;4951;50.778;7.196;2023-08-31T05:03:05;4.30;;;3.03;;
9823;SDS011;4951;50.778;7.196;2023-08-31T05:05:33;4.87;;;3.40;;
9823;SDS011;4951;50.778;7.196;2023-08-31T05:08:00;3.93;;;3.00;;
9823;SDS011;4951;50.778;7.196;2023-08-31T05:10:29;6.67;;;3.50;;
9823;SDS011;4951;50.778;7.196;2023-08-31T05:12:56;6.90;;;3.00;;
9823;SDS011;4951;50.778;7.196;2023-08-31T05:15:23;3.73;;;3.17;;
9823;SDS011;4951;50.778;7.196;2023-08-31T05:17:53;4.10;;;3.20;;
9823;SDS011;4951;50.778;7.196;2023-08-31T05:20:23;4.67;;;2.97;;
9823;SDS011;4951;50.778;7.196;2023-08-31T05:22:50;7.10;;;3.50;;
9823;SDS011;4951;50.778;7.196;2023-08-31T05:25:17;5.03;;;2.63;;
9823;SDS011;4951;50.778;7.196;2023-08-31T05:27:45;8.00;;;3.10;;
9823;SDS011;4951;50.778;7.196;2023-08-31T05:30:12;4.87;;;2.93;;
9823;SDS011;4951;50.778;7.196;2023-08-31T05:32:39;5.10;;;2.50;;
9823;SDS011;4951;50.778;7.196;2023-08-31T05:35:07;6.13;;;2.93;;
9823;SDS011;4951;50.778;7.196;2023-08-31T05:37:37;4.73;;;3.50;;
9823;SDS011;4951;50.778;7.196;2023-08-31T05:40:06;6.67;;;3.00;;
9823;SDS011;4951;50.778;7.196;2023-08-31T05:42:37;4.20;;;2.90;;
9823;SDS011;4951;50.778;7.196;2023-08-31T05:45:05;5.13;;;3.20;;
9823;SDS011;4951;50.778;7.196;2023-08-31T05:47:34;7.30;;;3.50;;
9823;SDS011;4951;50.778;7.196;2023-08-31T05:50:02;5.03;;;2.80;;
9823;SDS011;4951;50.778;7.196;2023-08-31T05:52:32;4.73;;;3.20;;
9823;SDS011;4951;50.778;7.196;2023-08-31T05:55:00;6.20;;;3.60;;
9823;SDS011;4951;50.778;7.196;2023-08-31T05:57:28;3.93;;;3.20;;
9823;SDS011;4951;50.778;7.196;2023-08-31T05:59:58;5.47;;;2.80;;
9823;SDS011;4951;50.778;7.196;2023-08-31T06:02:25;6.63;;;2.97;;
9823;SDS011;4951;50.778;7.196;2023-08-31T06:04:52;3.60;;;3.27;;
9823;SDS011;4951;50.778;7.196;2023-08-31T06:07:19;3.90;;;2.87;;
9823;SDS011;4951;50.778;7.196;2023-08-31T06:09:46;4.87;;;3.00;;
9823;SDS011;4951;50.778;7.196;2023-08-31T06:12:18;4.47;;;2.80;;
9823;SDS011;4951;50.778;7.196;2023-08-31T06:14:48;4.73;;;2.70;;
9823;SDS011;4951;50.778;7.196;2023-08-31T06:17:15;4.33;;;2.47;;
9823;SDS011;4951;50.778;7.196;2023-08-31T06:19:42;4.53;;;2.67;;
9823;SDS011;4951;50.778;7.196;2023-08-31T06:22:10;6.03;;;3.07;;
9823;SDS011;4951;50.778;7.196;2023-08-31T06:24:39;6.90;;;3.17;;
9823;SDS011;4951;50.778;7.196;2023-08-31T06:27:07;8.20;;;3.67;;
9823;SDS011;4951;50.778;7.196;2023-08-31T06:29:36;11.10;;;3.97;;
9823;SDS011;4951;50.778;7.196;2023-08-31T06:32:03;4.07;;;2.87;;
9823;SDS011;4951;50.778;7.196;2023-08-31T06:34:31;4.53;;;2.60;;
9823;SDS011;4951;50.778;7.196;2023-08-31T06:36:58;5.10;;;2.60;;
9823;SDS011;4951;50.778;7.196;2023-08-31T06:39:27;4.70;;;2.53;;
9823;SDS011;4951;50.778;7.196;2023-08-31T06:41:54;5.27;;;2.47;;
9823;SDS011;4951;50.778;7.196;2023-08-31T06:44:29;3.73;;;2.40;;
9823;SDS011;4951;50.778;7.196;2023-08-31T06:46:58;3.47;;;2.20;;
9823;SDS011;4951;50.778;7.196;2023-08-31T06:49:26;4.60;;;2.33;;
9823;SDS011;4951;50.778;7.196;2023-08-31T06:51:55;4.30;;;2.20;;
9823;SDS011;4951;50.778;7.196;2023-08-31T06:54:23;5.90;;;2.60;;
9823;SDS011;4951;50.778;7.196;2023-08-31T06:56:50;5.80;;;2.50;;
9823;SDS011;4951;50.778;7.196;2023-08-31T06:59:20;5.37;;;2.37;;
9823;SDS011;4951;50.778;7.196;2023-08-31T07:01:51;2.63;;;2.30;;
9823;SDS011;4951;50.778;7.196;2023-08-31T07:04:19;3.67;;;2.37;;
9823;SDS011;4951;50.778;7.196;2023-08-31T07:06:46;8.80;;;2.73;;
9823;SDS011;4951;50.778;7.196;2023-08-31T07:09:13;4.37;;;2.50;;
9823;SDS011;4951;50.778;7.196;2023-08-31T07:11:41;5.10;;;2.37;;
9823;SDS011;4951;50.778;7.196;2023-08-31T07:14:08;2.80;;;2.23;;
9823;SDS011;4951;50.778;7.196;2023-08-31T07:16:37;4.27;;;2.23;;
9823;SDS011;4951;50.778;7.196;2023-08-31T07:19:04;7.40;;;3.00;;
9823;SDS011;4951;50.778;7.196;2023-08-31T07:21:34;6.23;;;2.87;;
9823;SDS011;4951;50.778;7.196;2023-08-31T07:24:02;3.90;;;2.60;;
9823;SDS011;4951;50.778;7.196;2023-08-31T07:26:30;4.50;;;2.30;;
9823;SDS011;4951;50.778;7.196;2023-08-31T07:29:00;2.70;;;2.20;;
9823;SDS011;4951;50.778;7.196;2023-08-31T07:31:29;4.87;;;2.47;;
9823;SDS011;4951;50.778;7.196;2023-08-31T07:33:56;4.97;;;2.50;;
9823;SDS011;4951;50.778;7.196;2023-08-31T07:36:24;3.40;;;2.00;;
9823;SDS011;4951;50.778;7.196;2023-08-31T07:38:52;4.70;;;2.53;;
9823;SDS011;4951;50.778;7.196;2023-08-31T07:41:20;4.37;;;2.30;;
9823;SDS011;4951;50.778;7.196;2023-08-31T07:43:47;4.23;;;2.30;;
9823;SDS011;4951;50.778;7.196;2023-08-31T07:46:15;3.40;;;2.30;;
9823;SDS011;4951;50.778;7.196;2023-08-31T07:48:48;4.10;;;2.33;;
9823;SDS011;4951;50.778;7.196;2023-08-31T07:51:16;3.57;;;2.30;;
9823;SDS011;4951;50.778;7.196;2023-08-31T07:53:49;6.63;;;2.20;;
9823;SDS011;4951;50.778;7.196;2023-08-31T07:56:18;3.63;;;2.33;;
9823;SDS011;4951;50.778;7.196;2023-08-31T07:58:46;2.63;;;1.90;;
9823;SDS011;4951;50.778;7.196;2023-08-31T08:01:13;3.47;;;2.07;;
9823;SDS011;4951;50.778;7.196;2023-08-31T08:03:43;3.33;;;1.80;;
9823;SDS011;4951;50.778;7.196;2023-08-31T08:06:12;4.03;;;2.40;;
9823;SDS011;4951;50.778;7.196;2023-08-31T08:08:40;3.73;;;2.00;;
9823;SDS011;4951;50.778;7.196;2023-08-31T08:11:08;3.53;;;1.70;;
9823;SDS011;4951;50.778;7.196;2023-08-31T08:13:37;3.73;;;1.97;;
9823;SDS011;4951;50.778;7.196;2023-08-31T08:16:05;5.47;;;1.97;;
9823;SDS011;4951;50.778;7.196;2023-08-31T08:18:34;4.93;;;2.00;;
9823;SDS011;4951;50.778;7.196;2023-08-31T08:21:02;3.03;;;1.87;;
9823;SDS011;4951;50.778;7.196;2023-08-31T08:23:30;4.03;;;2.10;;
9823;SDS011;4951;50.778;7.196;2023-08-31T08:25:57;2.07;;;1.67;;
9823;SDS011;4951;50.778;7.196;2023-08-31T08:28:27;3.07;;;1.93;;
9823;SDS011;4951;50.778;7.196;2023-08-31T08:30:58;2.73;;;1.63;;
9823;SDS011;4951;50.778;7.196;2023-08-31T08:33:28;4.37;;;1.80;;
9823;SDS011;4951;50.778;7.196;2023-08-31T08:35:57;3.10;;;1.70;;
9823;SDS011;4951;50.778;7.196;2023-08-31T08:38:24;2.77;;;1.70;;
9823;SDS011;4951;50.778;7.196;2023-08-31T08:40:51;3.37;;;1.90;;
9823;SDS011;4951;50.778;7.196;2023-08-31T08:43:20;3.90;;;1.90;;
9823;SDS011;4951;50.778;7.196;2023-08-31T08:45:52;3.67;;;1.70;;
9823;SDS011;4951;50.778;7.196;2023-08-31T08:48:22;3.10;;;1.67;;
9823;SDS011;4951;50.778;7.196;2023-08-31T08:50:50;3.00;;;1.80;;
9823;SDS011;4951;50.778;7.196;2023-08-31T08:53:17;6.07;;;1.93;;
9823;SDS011;4951;50.778;7.196;2023-08-31T08:55:44;2.93;;;1.70;;
9823;SDS011;4951;50.778;7.196;2023-08-31T08:58:14;3.57;;;2.00;;
9823;SDS011;4951;50.778;7.196;2023-08-31T09:00:41;4.00;;;1.70;;
9823;SDS011;4951;50.778;7.196;2023-08-31T09:03:13;3.00;;;1.80;;
9823;SDS011;4951;50.778;7.196;2023-08-31T09:05:42;5.95;;;1.73;;
9823;SDS011;4951;50.778;7.196;2023-08-31T09:08:09;4.72;;;1.80;;
9823;SDS011;4951;50.778;7.196;2023-08-31T09:10:39;3.30;;;1.65;;
9823;SDS011;4951;50.778;7.196;2023-08-31T09:13:08;3.38;;;1.63;;
9823;SDS011;4951;50.778;7.196;2023-08-31T09:15:44;4.85;;;1.75;;
9823;SDS011;4951;50.778;7.196;2023-08-31T09:18:14;2.03;;;1.52;;
9823;SDS011;4951;50.778;7.196;2023-08-31T09:20:44;2.03;;;1.53;;
9823;SDS011;4951;50.778;7.196;2023-08-31T09:23:14;2.30;;;1.40;;
9823;SDS011;4951;50.778;7.196;2023-08-31T09:25:42;4.43;;;1.63;;
9823;SDS011;4951;50.778;7.196;2023-08-31T09:28:12;2.50;;;1.50;;
9823;SDS011;4951;50.778;7.196;2023-08-31T09:30:40;3.30;;;1.63;;
9823;SDS011;4951;50.778;7.196;2023-08-31T09:33:08;1.77;;;1.50;;
9823;SDS011;4951;50.778;7.196;2023-08-31T09:35:47;5.10;;;1.80;;
9823;SDS011;4951;50.778;7.196;2023-08-31T09:38:16;2.90;;;1.60;;
9823;SDS011;4951;50.778;7.196;2023-08-31T09:40:44;2.70;;;1.50;;
9823;SDS011;4951;50.778;7.196;2023-08-31T09:43:17;3.47;;;1.67;;
9823;SDS011;4951;50.778;7.196;2023-08-31T09:45:46;3.60;;;1.77;;
9823;SDS011;4951;50.778;7.196;2023-08-31T09:48:14;1.88;;;1.40;;
9823;SDS011;4951;50.778;7.196;2023-08-31T09:50:43;3.92;;;1.63;;
9823;SDS011;4951;50.778;7.196;2023-08-31T09:53:14;2.13;;;1.50;;
9823;SDS011;4951;50.778;7.196;2023-08-31T09:55:43;2.25;;;1.70;;
9823;SDS011;4951;50.778;7.196;2023-08-31T09:58:10;2.47;;;1.40;;
9823;SDS011;4951;50.778;7.196;2023-08-31T10:00:40;2.25;;;1.50;;
9823;SDS011;4951;50.778;7.196;2023-08-31T10:03:08;3.35;;;1.67;;
9823;SDS011;4951;50.778;7.196;2023-08-31T10:05:39;2.42;;;1.50;;
9823;SDS011;4951;50.778;7.196;2023-08-31T10:08:07;3.33;;;1.48;;
9823;SDS011;4951;50.778;7.196;2023-08-31T10:10:36;4.10;;;2.17;;
9823;SDS011;4951;50.778;7.196;2023-08-31T10:13:04;2.65;;;1.50;;
9823;SDS011;4951;50.778;7.196;2023-08-31T10:15:32;2.25;;;1.63;;
9823;SDS011;4951;50.778;7.196;2023-08-31T10:18:01;3.85;;;1.48;;
9823;SDS011;4951;50.778;7.196;2023-08-31T10:20:29;4.38;;;1.60;;
9823;SDS011;4951;50.778;7.196;2023-08-31T10:22:58;2.58;;;1.60;;
9823;SDS011;4951;50.778;7.196;2023-08-31T10:25:40;2.60;;;1.52;;
9823;SDS011;4951;50.778;7.196;2023-08-31T10:28:26;3.63;;;2.00;;
9823;SDS011;4951;50.778;7.196;2023-08-31T10:31:00;3.08;;;1.70;;
9823;SDS011;4951;50.778;7.196;2023-08-31T10:33:28;2.75;;;1.60;;
9823;SDS011;4951;50.778;7.196;2023-08-31T10:35:58;1.92;;;1.30;;
9823;SDS011;4951;50.778;7.196;2023-08-31T10:38:27;6.40;;;1.52;;
9823;SDS011;4951;50.778;7.196;2023-08-31T10:41:17;2.35;;;1.70;;
9823;SDS011;4951;50.778;7.196;2023-08-31T10:43:59;3.15;;;1.83;;
9823;SDS011;4951;50.778;7.196;2023-08-31T10:46:27;2.17;;;1.40;;
9823;SDS011;4951;50.778;7.196;2023-08-31T10:48:57;3.20;;;1.80;;
9823;SDS011;4951;50.778;7.196;2023-08-31T10:51:27;3.30;;;1.63;;
9823;SDS011;4951;50.778;7.196;2023-08-31T10:54:04;2.58;;;1.73;;
9823;SDS011;4951;50.778;7.196;2023-08-31T10:56:40;2.53;;;1.60;;
9823;SDS011;4951;50.778;7.196;2023-08-31T10:59:47;2.75;;;1.88;;
9823;SDS011;4951;50.778;7.196;2023-08-31T11:02:34;2.92;;;1.58;;
9823;SDS011;4951;50.778;7.196;2023-08-31T11:05:06;2.92;;;1.45;;
9823;SDS011;4951;50.778;7.196;2023-08-31T11:07:35;2.25;;;1.58;;
9823;SDS011;4951;50.778;7.196;2023-08-31T11:10:12;2.20;;;1.40;;
9823;SDS011;4951;50.778;7.196;2023-08-31T11:12:45;5.53;;;1.55;;
9823;SDS011;4951;50.778;7.196;2023-08-31T11:15:14;3.58;;;2.25;;
9823;SDS011;4951;50.778;7.196;2023-08-31T11:17:43;4.28;;;1.67;;
9823;SDS011;4951;50.778;7.196;2023-08-31T11:20:15;3.45;;;1.67;;
9823;SDS011;4951;50.778;7.196;2023-08-31T11:22:44;4.65;;;2.08;;
9823;SDS011;4951;50.778;7.196;2023-08-31T11:25:16;3.22;;;1.70;;
9823;SDS011;4951;50.778;7.196;2023-08-31T11:27:53;3.83;;;1.60;;
9823;SDS011;4951;50.778;7.196;2023-08-31T11:30:21;3.72;;;1.80;;
9823;SDS011;4951;50.778;7.196;2023-08-31T11:32:50;5.20;;;2.05;;
9823;SDS011;4951;50.778;7.196;2023-08-31T11:35:18;3.78;;;1.80;;
9823;SDS011;4951;50.778;7.196;2023-08-31T11:37:49;2.40;;;1.50;;
9823;SDS011;4951;50.778;7.196;2023-08-31T11:40:21;3.72;;;1.70;;
9823;SDS011;4951;50.778;7.196;2023-08-31T11:42:51;2.63;;;1.70;;
9823;SDS011;4951;50.778;7.196;2023-08-31T11:45:22;3.17;;;1.80;;
9823;SDS011;4951;50.778;7.196;2023-08-31T11:47:51;2.97;;;1.83;;
9823;SDS011;4951;50.778;7.196;2023-08-31T11:50:21;1.98;;;1.70;;
9823;SDS011;4951;50.778;7.196;2023-08-31T11:52:49;3.63;;;1.70;;
9823;SDS011;4951;50.778;7.196;2023-08-31T11:55:20;2.58;;;1.55;;
9823;SDS011;4951;50.778;7.196;2023-08-31T11:57:49;3.30;;;1.88;;
9823;SDS011;4951;50.778;7.196;2023-08-31T12:00:21;4.65;;;1.80;;
9823;SDS011;4951;50.778;7.196;2023-08-31T12:02:56;3.03;;;1.83;;
9823;SDS011;4951;50.778;7.196;2023-08-31T12:05:24;5.18;;;2.40;;
9823;SDS011;4951;50.778;7.196;2023-08-31T12:07:52;3.63;;;2.10;;
9823;SDS011;4951;50.778;7.196;2023-08-31T12:10:20;4.63;;;2.53;;
9823;SDS011;4951;50.778;7.196;2023-08-31T12:12:51;5.38;;;2.33;;
9823;SDS011;4951;50.778;7.196;2023-08-31T12:15:22;5.13;;;2.30;;
9823;SDS011;4951;50.778;7.196;2023-08-31T12:17:49;4.90;;;2.80;;
9823;SDS011;4951;50.778;7.196;2023-08-31T12:20:24;5.73;;;2.30;;
9823;SDS011;4951;50.778;7.196;2023-08-31T12:22:53;3.80;;;2.40;;
9823;SDS011;4951;50.778;7.196;2023-08-31T12:25:20;4.03;;;2.23;;
9823;SDS011;4951;50.778;7.196;2023-08-31T12:27:47;5.67;;;2.70;;
9823;SDS011;4951;50.778;7.196;2023-08-31T12:30:15;4.87;;;2.67;;
9823;SDS011;4951;50.778;7.196;2023-08-31T12:32:45;4.67;;;2.70;;
9823;SDS011;4951;50.778;7.196;2023-08-31T12:35:15;3.20;;;2.40;;
9823;SDS011;4951;50.778;7.196;2023-08-31T12:37:43;4.47;;;2.33;;
9823;SDS011;4951;50.778;7.196;2023-08-31T12:40:10;3.57;;;2.57;;
9823;SDS011;4951;50.778;7.196;2023-08-31T12:42:38;4.97;;;2.50;;
9823;SDS011;4951;50.778;7.196;2023-08-31T12:45:06;5.17;;;2.70;;
9823;SDS011;4951;50.778;7.196;2023-08-31T12:47:34;3.67;;;2.30;;
9823;SDS011;4951;50.778;7.196;2023-08-31T12:50:03;3.83;;;2.17;;
9823;SDS011;4951;50.778;7.196;2023-08-31T12:52:30;3.40;;;2.03;;
9823;SDS011;4951;50.778;7.196;2023-08-31T12:54:57;3.28;;;2.35;;
9823;SDS011;4951;50.778;7.196;2023-08-31T12:57:24;3.17;;;2.50;;
9823;SDS011;4951;50.778;7.196;2023-08-31T12:59:51;3.53;;;2.15;;
9823;SDS011;4951;50.778;7.196;2023-08-31T13:02:19;2.70;;;1.90;;
9823;SDS011;4951;50.778;7.196;2023-08-31T13:04:47;3.67;;;2.33;;
9823;SDS011;4951;50.778;7.196;2023-08-31T13:07:18;5.03;;;2.30;;
9823;SDS011;4951;50.778;7.196;2023-08-31T13:09:45;3.57;;;2.40;;
9823;SDS011;4951;50.778;7.196;2023-08-31T13:12:12;4.75;;;2.50;;
9823;SDS011;4951;50.778;7.196;2023-08-31T13:14:40;4.18;;;2.30;;
9823;SDS011;4951;50.778;7.196;2023-08-31T13:17:07;3.67;;;2.10;;
9823;SDS011;4951;50.778;7.196;2023-08-31T13:19:34;2.70;;;2.20;;
9823;SDS011;4951;50.778;7.196;2023-08-31T13:22:01;4.50;;;2.70;;
9823;SDS011;4951;50.778;7.196;2023-08-31T13:24:31;4.03;;;2.27;;
9823;SDS011;4951;50.778;7.196;2023-08-31T13:26:58;3.83;;;2.38;;
9823;SDS011;4951;50.778;7.196;2023-08-31T13:29:26;4.03;;;2.67;;
9823;SDS011;4951;50.778;7.196;2023-08-31T13:31:54;3.10;;;2.60;;
9823;SDS011;4951;50.778;7.196;2023-08-31T13:34:22;4.07;;;2.72;;
9823;SDS011;4951;50.778;7.196;2023-08-31T13:36:53;4.45;;;2.88;;
9823;SDS011;4951;50.778;7.196;2023-08-31T13:39:25;4.60;;;2.30;;
9823;SDS011;4951;50.778;7.196;2023-08-31T13:41:54;5.32;;;2.85;;
9823;SDS011;4951;50.778;7.196;2023-08-31T13:44:22;3.72;;;2.50;;
9823;SDS011;4951;50.778;7.196;2023-08-31T13:46:49;5.30;;;2.63;;
9823;SDS011;4951;50.778;7.196;2023-08-31T13:49:16;4.32;;;2.40;;
9823;SDS011;4951;50.778;7.196;2023-08-31T13:51:46;4.20;;;2.50;;
9823;SDS011;4951;50.778;7.196;2023-08-31T13:54:13;6.35;;;2.45;;
9823;SDS011;4951;50.778;7.196;2023-08-31T13:56:40;3.83;;;2.25;;
9823;SDS011;4951;50.778;7.196;2023-08-31T13:59:09;4.82;;;2.53;;
9823;SDS011;4951;50.778;7.196;2023-08-31T14:01:37;5.95;;;2.30;;
9823;SDS011;4951;50.778;7.196;2023-08-31T14:04:04;3.97;;;2.10;;
9823;SDS011;4951;50.778;7.196;2023-08-31T14:06:32;6.18;;;2.65;;
9823;SDS011;4951;50.778;7.196;2023-08-31T14:09:01;5.85;;;2.63;;
9823;SDS011;4951;50.778;7.196;2023-08-31T14:11:30;4.32;;;2.70;;
9823;SDS011;4951;50.778;7.196;2023-08-31T14:14:01;3.92;;;2.22;;
9823;SDS011;4951;50.778;7.196;2023-08-31T14:16:32;4.22;;;2.35;;
9823;SDS011;4951;50.778;7.196;2023-08-31T14:19:01;5.57;;;2.30;;
9823;SDS011;4951;50.778;7.196;2023-08-31T14:21:29;3.58;;;2.30;;
9823;SDS011;4951;50.778;7.196;2023-08-31T14:23:57;4.18;;;2.30;;
9823;SDS011;4951;50.778;7.196;2023-08-31T14:26:24;5.07;;;2.40;;
9823;SDS011;4951;50.778;7.196;2023-08-31T14:28:52;5.13;;;2.20;;
9823;SDS011;4951;50.778;7.196;2023-08-31T14:31:20;5.35;;;2.03;;
9823;SDS011;4951;50.778;7.196;2023-08-31T14:33:48;3.70;;;2.35;;
9823;SDS011;4951;50.778;7.196;2023-08-31T14:36:17;5.78;;;2.95;;
9823;SDS011;4951;50.778;7.196;2023-08-31T14:38:44;4.05;;;2.40;;
9823;SDS011;4951;50.778;7.196;2023-08-31T14:41:11;4.78;;;2.35;;
9823;SDS011;4951;50.778;7.196;2023-08-31T14:43:39;5.65;;;2.70;;
9823;SDS011;4951;50.778;7.196;2023-08-31T14:46:06;3.90;;;2.53;;
9823;SDS011;4951;50.778;7.196;2023-08-31T14:48:33;5.38;;;2.35;;
9823;SDS011;4951;50.778;7.196;2023-08-31T14:51:03;3.83;;;2.08;;
9823;SDS011;4951;50.778;7.196;2023-08-31T14:53:34;6.85;;;2.53;;
9823;SDS011;4951;50.778;7.196;2023-08-31T14:56:01;5.05;;;2.33;;
9823;SDS011;4951;50.778;7.196;2023-08-31T14:58:30;4.05;;;2.70;;
9823;SDS011;4951;50.778;7.196;2023-08-31T15:00:59;4.75;;;2.38;;
9823;SDS011;4951;50.778;7.196;2023-08-31T15:03:27;6.18;;;2.50;;
9823;SDS011;4951;50.778;7.196;2023-08-31T15:05:56;2.92;;;2.30;;
9823;SDS011;4951;50.778;7.196;2023-08-31T15:08:36;5.32;;;2.40;;
9823;SDS011;4951;50.778;7.196;2023-08-31T15:11:04;4.85;;;2.10;;
9823;SDS011;4951;50.778;7.196;2023-08-31T15:13:31;5.95;;;2.22;;
9823;SDS011;4951;50.778;7.196;2023-08-31T15:16:00;5.70;;;2.25;;
9823;SDS011;4951;50.778;7.196;2023-08-31T15:18:28;3.83;;;2.40;;
9823;SDS011;4951;50.778;7.196;2023-08-31T15:20:58;4.93;;;2.22;;
9823;SDS011;4951;50.778;7.196;2023-08-31T15:23:28;3.40;;;2.22;;
9823;SDS011;4951;50.778;7.196;2023-08-31T15:26:00;3.70;;;2.20;;
9823;SDS011;4951;50.778;7.196;2023-08-31T15:28:29;4.63;;;1.98;;